createdAt,value
2023-02-17T00:01:43.706Z,66.84
2023-02-17T00:04:13.726Z,67.08
2023-02-17T00:06:43.719Z,67.42
2023-02-17T00:09:12.596Z,66.57
2023-02-17T00:11:42.218Z,66.10
2023-02-17T00:14:15.283Z,65.97
2023-02-17T00:16:47.468Z,66.48
2023-02-17T00:19:27.699Z,66.75
2023-02-17T00:21:59.686Z,66.58
2023-02-17T00:24:30.000Z,66.92
2023-02-17T00:27:01.237Z,66.77
2023-02-17T00:29:30.584Z,66.89
2023-02-17T00:32:03.912Z,66.88
2023-02-17T00:34:33.207Z,66.64
2023-02-17T00:37:05.254Z,66.73
2023-02-17T00:39:37.731Z,66.69
2023-02-17T00:42:07.752Z,66.94
2023-02-17T00:44:37.315Z,66.97
2023-02-17T00:47:08.262Z,67.04
2023-02-17T00:49:36.854Z,66.96
2023-02-17T00:52:05.618Z,67.10
2023-02-17T00:54:38.408Z,66.47
2023-02-17T00:57:09.003Z,65.91
2023-02-17T00:59:40.929Z,65.81
2023-02-17T01:02:11.271Z,65.91
2023-02-17T01:04:41.654Z,66.20
2023-02-17T01:07:10.342Z,66.27
2023-02-17T01:09:38.784Z,66.40
2023-02-17T01:12:11.800Z,66.27
2023-02-17T01:14:42.518Z,66.04
2023-02-17T01:17:15.324Z,66.08
2023-02-17T01:19:45.285Z,66.31
2023-02-17T01:22:13.674Z,66.52
2023-02-17T01:24:46.957Z,66.41
2023-02-17T01:27:15.482Z,66.50
2023-02-17T01:29:48.661Z,66.74
2023-02-17T01:32:17.881Z,66.56
2023-02-17T01:34:46.270Z,66.72
2023-02-17T01:37:17.681Z,66.84
2023-02-17T01:39:46.704Z,66.89
2023-02-17T01:42:20.177Z,66.18
2023-02-17T01:45:16.603Z,65.50
2023-02-17T01:47:57.304Z,65.44
2023-02-17T01:50:29.841Z,65.96
2023-02-17T01:52:58.311Z,66.33
2023-02-17T01:55:29.124Z,66.52
2023-02-17T01:58:01.819Z,66.39
2023-02-17T02:00:31.962Z,66.44
2023-02-17T02:03:01.207Z,66.42
2023-02-17T02:05:30.814Z,66.21
2023-02-17T02:08:01.879Z,66.29
2023-02-17T02:10:37.333Z,66.41
2023-02-17T02:13:07.884Z,66.61
2023-02-17T02:15:44.559Z,66.72
2023-02-17T02:18:46.805Z,66.76
2023-02-17T02:21:40.841Z,66.92
2023-02-17T02:24:12.556Z,66.87
2023-02-17T02:27:07.985Z,67.00
2023-02-17T02:29:53.787Z,66.82
2023-02-17T02:33:00.150Z,66.19
2023-02-17T02:36:02.644Z,65.79
2023-02-17T02:38:57.630Z,65.35
2023-02-17T02:41:38.936Z,65.94
2023-02-17T02:44:11.184Z,66.21
2023-02-17T02:46:41.896Z,66.48
2023-02-17T02:49:13.120Z,66.33
2023-02-17T02:52:01.143Z,66.34
2023-02-17T02:54:46.511Z,66.40
2023-02-17T02:59:09.213Z,66.57
2023-02-17T03:01:45.352Z,66.07
2023-02-17T03:04:53.421Z,66.14
2023-02-17T03:07:32.092Z,66.12
2023-02-17T03:10:03.430Z,66.07
2023-02-17T03:12:33.360Z,66.04
2023-02-17T03:15:06.445Z,65.93
2023-02-17T03:17:34.538Z,65.98
2023-02-17T03:20:07.299Z,66.04
2023-02-17T03:22:44.833Z,65.17
2023-02-17T03:25:12.709Z,64.57
2023-02-17T03:27:40.642Z,64.41
2023-02-17T03:30:12.553Z,64.44
2023-02-17T03:32:49.571Z,64.78
2023-02-17T03:35:25.956Z,64.53
2023-02-17T03:37:54.450Z,64.61
2023-02-17T03:40:28.465Z,64.24
2023-02-17T03:42:59.705Z,64.01
2023-02-17T03:45:30.643Z,63.67
2023-02-17T03:48:26.264Z,64.05
2023-02-17T03:50:54.481Z,63.94
2023-02-17T03:53:22.562Z,64.14
2023-02-17T03:55:50.749Z,64.16
2023-02-17T03:58:21.164Z,64.37
2023-02-17T04:00:50.577Z,64.46
2023-02-17T04:03:21.864Z,64.75
2023-02-17T04:05:51.745Z,64.87
2023-02-17T04:08:22.008Z,64.62
2023-02-17T04:10:55.978Z,63.97
2023-02-17T04:13:26.470Z,64.05
2023-02-17T04:15:57.602Z,64.45
2023-02-17T04:18:25.717Z,64.80
2023-02-17T04:20:56.145Z,65.33
2023-02-17T04:23:25.751Z,65.56
2023-02-17T04:25:57.654Z,65.65
2023-02-17T04:28:25.930Z,65.74
2023-02-17T04:31:02.307Z,65.95
2023-02-17T04:33:37.424Z,65.94
2023-02-17T04:36:19.273Z,65.80
2023-02-17T04:38:49.162Z,66.22
2023-02-17T04:41:23.304Z,66.21
2023-02-17T04:43:53.021Z,66.19
2023-02-17T04:46:20.758Z,66.27
2023-02-17T04:48:53.162Z,66.40
2023-02-17T04:51:24.137Z,65.62
2023-02-17T04:53:57.155Z,64.64
2023-02-17T04:56:28.097Z,64.71
2023-02-17T04:59:15.478Z,64.81
2023-02-17T05:01:45.359Z,65.24
2023-02-17T05:04:19.659Z,65.10
2023-02-17T05:06:47.232Z,65.41
2023-02-17T05:09:24.199Z,65.13
2023-02-17T05:11:52.599Z,65.24
2023-02-17T05:14:31.735Z,65.03
2023-02-17T05:17:05.619Z,64.96
2023-02-17T05:19:36.351Z,64.86
2023-02-17T05:22:08.851Z,64.95
2023-02-17T05:24:42.114Z,64.88
2023-02-17T05:27:15.204Z,64.78
2023-02-17T05:29:48.654Z,64.96
2023-02-17T05:32:19.061Z,65.12
2023-02-17T05:34:49.305Z,65.32
2023-02-17T05:37:19.623Z,65.18
2023-02-17T05:39:53.099Z,65.36
2023-02-17T05:42:45.582Z,64.98
2023-02-17T05:45:15.545Z,64.21
2023-02-17T05:47:45.302Z,64.12
2023-02-17T05:50:17.905Z,64.06
2023-02-17T05:52:48.262Z,64.10
2023-02-17T05:55:19.318Z,64.33
2023-02-17T05:57:53.611Z,64.51
2023-02-17T06:00:30.691Z,64.79
2023-02-17T06:03:26.281Z,64.75
2023-02-17T06:05:55.410Z,64.69
2023-02-17T06:08:25.772Z,65.15
2023-02-17T06:10:57.829Z,64.95
2023-02-17T06:13:37.274Z,64.92
2023-02-17T06:16:05.265Z,64.92
2023-02-17T06:18:35.340Z,65.00
2023-02-17T06:21:15.124Z,64.93
2023-02-17T06:23:52.304Z,64.77
2023-02-17T06:26:20.260Z,64.87
2023-02-17T06:29:20.749Z,64.88
2023-02-17T06:31:52.619Z,64.04
2023-02-17T06:34:28.177Z,63.65
2023-02-17T06:36:56.844Z,63.92
2023-02-17T06:39:27.076Z,64.32
2023-02-17T06:42:03.812Z,64.83
2023-02-17T06:44:39.702Z,64.70
2023-02-17T06:47:11.768Z,64.76
2023-02-17T06:49:52.639Z,64.61
2023-02-17T06:52:21.479Z,64.73
2023-02-17T06:54:55.873Z,64.68
2023-02-17T06:57:27.011Z,64.97
2023-02-17T06:59:54.634Z,65.06
2023-02-17T07:02:24.454Z,65.28
2023-02-17T07:05:00.281Z,65.34
2023-02-17T07:07:35.265Z,65.31
2023-02-17T07:10:06.412Z,65.50
2023-02-17T07:12:40.269Z,64.92
2023-02-17T07:15:15.916Z,64.04
2023-02-17T07:17:52.150Z,64.10
2023-02-17T07:20:48.296Z,64.21
2023-02-17T07:24:07.456Z,64.12
2023-02-17T07:26:38.987Z,64.34
2023-02-17T07:29:07.802Z,64.26
2023-02-17T07:31:38.327Z,64.08
2023-02-17T07:34:10.377Z,64.14
2023-02-17T07:36:47.806Z,64.24
2023-02-17T07:39:18.625Z,64.03
2023-02-17T07:41:50.009Z,63.78
2023-02-17T07:44:19.759Z,63.41
2023-02-17T07:46:51.968Z,63.73
2023-02-17T07:49:22.627Z,63.68
2023-02-17T07:52:00.761Z,63.91
2023-02-17T07:54:40.772Z,63.74
2023-02-17T07:57:13.358Z,64.10
2023-02-17T07:59:44.484Z,63.95
2023-02-17T08:02:14.668Z,63.90
2023-02-17T08:04:46.485Z,63.90
2023-02-17T08:07:16.386Z,63.96
2023-02-17T08:10:11.777Z,63.01
2023-02-17T08:12:59.729Z,62.91
2023-02-17T08:15:31.592Z,62.96
2023-02-17T08:18:04.831Z,63.29
2023-02-17T08:20:42.069Z,63.34
2023-02-17T08:23:21.221Z,63.27
2023-02-17T08:25:53.665Z,62.79
2023-02-17T08:28:24.269Z,63.18
2023-02-17T08:30:59.977Z,63.24
2023-02-17T08:33:32.437Z,63.44
2023-02-17T08:36:09.449Z,63.62
2023-02-17T08:38:50.004Z,63.56
2023-02-17T08:41:22.925Z,63.58
2023-02-17T08:43:53.964Z,63.70
2023-02-17T08:46:27.849Z,63.68
2023-02-17T08:48:59.292Z,63.65
2023-02-17T08:51:28.587Z,64.24
2023-02-17T08:54:00.433Z,64.11
2023-02-17T08:56:30.663Z,63.54
2023-02-17T08:59:05.548Z,62.93
2023-02-17T09:01:40.872Z,61.42
2023-02-17T09:04:09.905Z,61.27
2023-02-17T09:06:48.607Z,61.52
2023-02-17T09:09:21.970Z,61.43
2023-02-17T09:11:57.004Z,61.33
2023-02-17T09:14:37.724Z,61.40
2023-02-17T09:17:18.842Z,60.92
2023-02-17T09:19:47.880Z,61.08
2023-02-17T09:22:30.794Z,60.79
2023-02-17T09:25:06.740Z,61.23
2023-02-17T09:27:37.572Z,60.96
2023-02-17T09:30:15.528Z,61.11
2023-02-17T09:32:46.985Z,60.99
2023-02-17T09:35:25.453Z,61.21
2023-02-17T09:38:00.900Z,60.93
2023-02-17T09:40:49.865Z,61.51
2023-02-17T09:43:26.542Z,61.00
2023-02-17T09:45:57.147Z,60.41
2023-02-17T09:48:32.832Z,60.00
2023-02-17T09:51:43.858Z,60.10
2023-02-17T09:54:22.361Z,61.04
2023-02-17T09:56:54.257Z,61.49
2023-02-17T09:59:29.791Z,61.46
2023-02-17T10:02:00.897Z,60.94
2023-02-17T10:04:43.142Z,60.83
2023-02-17T10:07:23.131Z,61.39
2023-02-17T10:10:41.028Z,61.88
2023-02-17T10:14:30.634Z,62.40
2023-02-17T10:18:00.166Z,62.66
2023-02-17T10:21:04.678Z,62.93
2023-02-17T10:23:35.549Z,62.47
2023-02-17T10:26:26.418Z,62.27
2023-02-17T10:30:03.033Z,62.47
2023-02-17T10:33:16.480Z,62.47
2023-02-17T10:36:56.837Z,62.03
2023-02-17T10:39:54.098Z,61.47
2023-02-17T10:42:50.207Z,61.25
2023-02-17T10:45:49.372Z,61.05
2023-02-17T10:49:07.181Z,60.71
2023-02-17T10:51:40.430Z,60.98
2023-02-17T10:54:37.066Z,60.31
2023-02-17T10:57:12.940Z,60.49
2023-02-17T10:59:47.138Z,60.32
2023-02-17T11:02:22.000Z,60.45
2023-02-17T11:05:05.040Z,60.33
2023-02-17T11:08:07.656Z,60.60
2023-02-17T11:10:43.453Z,60.57
2023-02-17T11:14:07.272Z,60.57
2023-02-17T11:16:44.285Z,60.57
2023-02-17T11:19:30.029Z,59.96
2023-02-17T11:22:01.488Z,59.58
2023-02-17T11:25:05.127Z,59.61
2023-02-17T11:27:34.938Z,60.16
2023-02-17T11:30:11.771Z,60.27
2023-02-17T11:32:48.222Z,60.65
2023-02-17T11:35:39.553Z,60.18
2023-02-17T11:38:27.702Z,60.48
2023-02-17T11:41:23.673Z,60.14
2023-02-17T11:43:58.814Z,60.02
2023-02-17T11:46:55.805Z,60.33
2023-02-17T11:49:35.775Z,60.64
2023-02-17T11:52:15.429Z,60.54
2023-02-17T11:55:09.245Z,60.87
2023-02-17T11:57:42.463Z,61.41
2023-02-17T12:00:31.123Z,61.28
2023-02-17T12:03:21.596Z,62.00
2023-02-17T12:06:30.042Z,62.27
2023-02-17T12:09:09.276Z,61.98
2023-02-17T12:12:17.504Z,62.05
2023-02-17T12:14:59.684Z,61.23
2023-02-17T12:18:30.284Z,60.79
2023-02-17T12:21:24.171Z,60.63
2023-02-17T12:24:30.007Z,61.06
2023-02-17T12:27:39.027Z,61.21
2023-02-17T12:30:10.491Z,60.92
2023-02-17T12:33:16.813Z,61.00
2023-02-17T12:35:55.723Z,60.93
2023-02-17T12:38:32.304Z,60.57
2023-02-17T12:41:09.424Z,60.33
2023-02-17T12:44:13.969Z,60.73
2023-02-17T12:46:43.915Z,61.08
2023-02-17T12:51:05.692Z,60.94
2023-02-17T12:53:41.461Z,61.28
2023-02-17T12:56:31.434Z,61.21
2023-02-17T12:59:25.816Z,60.99
2023-02-17T13:02:20.918Z,61.34
2023-02-17T13:04:54.913Z,61.66
2023-02-17T13:07:47.213Z,61.77
2023-02-17T13:10:47.516Z,62.37
2023-02-17T13:13:27.843Z,62.62
2023-02-17T13:16:14.840Z,62.15
2023-02-17T13:18:46.133Z,61.70
2023-02-17T13:21:30.161Z,61.72
2023-02-17T13:24:23.041Z,61.43
2023-02-17T13:26:52.086Z,61.61
2023-02-17T13:29:35.364Z,61.77
2023-02-17T13:32:12.536Z,61.77
2023-02-17T13:34:46.674Z,61.99
2023-02-17T13:37:45.719Z,62.16
2023-02-17T13:40:20.323Z,62.28
2023-02-17T13:43:17.988Z,61.97
2023-02-17T13:45:54.110Z,62.42
2023-02-17T13:48:22.518Z,62.48
2023-02-17T13:50:55.916Z,62.73
2023-02-17T13:53:56.140Z,62.92
2023-02-17T13:56:31.029Z,63.12
2023-02-17T14:08:01.213Z,63.22
2023-02-17T14:10:39.287Z,63.73
2023-02-17T14:13:14.155Z,63.85
2023-02-17T14:15:53.285Z,63.60
2023-02-17T14:18:38.942Z,62.70
2023-02-17T14:21:14.059Z,62.64
2023-02-17T14:23:45.535Z,63.24
2023-02-17T14:26:28.809Z,63.36
2023-02-17T14:29:01.842Z,63.27
2023-02-17T14:31:30.320Z,63.69
2023-02-17T14:34:03.046Z,63.90
2023-02-17T14:36:39.568Z,64.29
2023-02-17T14:39:13.682Z,64.42
2023-02-17T14:41:44.600Z,64.24
2023-02-17T14:44:17.740Z,64.63
2023-02-17T14:46:54.827Z,64.55
2023-02-17T14:49:26.358Z,64.72
2023-02-17T14:51:56.219Z,64.99
2023-02-17T14:54:29.428Z,65.39
2023-02-17T14:57:08.680Z,65.81
2023-02-17T14:59:38.956Z,65.37
2023-02-17T15:02:17.226Z,64.64
2023-02-17T15:04:47.630Z,64.79
2023-02-17T15:07:25.564Z,65.14
2023-02-17T15:10:03.243Z,65.83
2023-02-17T15:12:35.503Z,65.78
2023-02-17T15:16:07.556Z,66.18
2023-02-17T15:18:39.053Z,65.79
2023-02-17T15:21:48.671Z,65.36
2023-02-17T15:25:28.508Z,65.84
2023-02-17T15:28:03.369Z,66.15
2023-02-17T15:30:40.592Z,66.18
2023-02-17T15:33:18.533Z,66.50
2023-02-17T15:36:18.344Z,66.56
2023-02-17T15:38:50.768Z,66.59
2023-02-17T15:41:33.561Z,66.44
2023-02-17T15:44:06.945Z,65.86
2023-02-17T15:46:41.307Z,65.42
2023-02-17T15:49:17.899Z,65.08
2023-02-17T15:51:49.259Z,64.99
2023-02-17T15:54:49.577Z,65.52
2023-02-17T15:57:47.912Z,66.11
2023-02-17T16:00:50.765Z,66.12
2023-02-17T16:03:22.321Z,65.85
2023-02-17T16:05:56.394Z,66.01
2023-02-17T16:08:31.822Z,66.01
2023-02-17T16:11:07.826Z,66.41
2023-02-17T16:13:41.782Z,66.41
2023-02-17T16:16:32.962Z,66.15
2023-02-17T16:19:03.656Z,66.46
2023-02-17T16:21:33.516Z,66.43
2023-02-17T16:24:06.592Z,66.45
2023-02-17T16:26:50.213Z,66.51
2023-02-17T16:29:24.276Z,66.44
2023-02-17T16:31:53.359Z,65.80
2023-02-17T16:34:32.433Z,65.55
2023-02-17T16:37:04.862Z,65.16
2023-02-17T16:39:38.823Z,65.49
2023-02-17T16:42:09.346Z,65.69
2023-02-17T16:44:42.640Z,66.07
2023-02-17T16:47:19.532Z,65.93
2023-02-17T16:49:52.215Z,66.29
2023-02-17T16:52:26.904Z,66.40
2023-02-17T16:55:03.144Z,66.42
2023-02-17T16:57:33.758Z,66.44
2023-02-17T17:00:08.188Z,66.13
2023-02-17T17:03:09.528Z,66.37
2023-02-17T17:06:07.399Z,66.34
2023-02-17T17:08:56.526Z,66.34
2023-02-17T17:11:30.438Z,65.91
2023-02-17T17:14:03.776Z,66.08
2023-02-17T17:16:46.324Z,66.05
2023-02-17T17:19:18.299Z,65.94
2023-02-17T17:21:50.808Z,65.38
2023-02-17T17:24:33.028Z,65.08
2023-02-17T17:27:07.832Z,65.03
2023-02-17T17:30:33.550Z,65.81
2023-02-17T17:33:07.348Z,66.46
2023-02-17T17:35:59.832Z,66.36
2023-02-17T17:38:50.267Z,66.55
2023-02-17T17:41:24.744Z,66.40
2023-02-17T17:43:59.820Z,66.67
2023-02-17T17:46:35.140Z,66.63
2023-02-17T17:49:10.804Z,66.37
2023-02-17T17:51:43.090Z,66.64
2023-02-17T17:58:45.847Z,66.52
2023-02-17T18:01:16.897Z,66.78
2023-02-17T18:03:48.035Z,66.57
2023-02-17T18:06:51.402Z,65.98
2023-02-17T18:09:32.296Z,65.28
2023-02-17T18:12:12.111Z,65.03
2023-02-17T18:14:46.774Z,65.49
2023-02-17T18:17:18.400Z,65.81
2023-02-17T18:19:55.874Z,65.97
2023-02-17T18:22:33.368Z,66.19
2023-02-17T18:25:12.583Z,66.00
2023-02-17T18:27:44.009Z,66.51
2023-02-17T18:30:24.441Z,66.91
2023-02-17T18:32:56.124Z,67.01
2023-02-17T18:35:25.953Z,66.97
2023-02-17T18:38:03.830Z,67.36
2023-02-17T18:40:37.568Z,67.16
2023-02-17T18:43:10.356Z,67.22
2023-02-17T18:45:41.059Z,67.47
2023-02-17T18:48:11.727Z,67.63
2023-02-17T18:50:42.198Z,67.23
2023-02-17T18:53:12.829Z,66.29
2023-02-17T18:55:43.849Z,66.09
2023-02-17T18:58:14.985Z,66.13
2023-02-17T19:00:47.029Z,66.62
2023-02-17T19:03:22.466Z,66.84
2023-02-17T19:05:54.124Z,67.11
2023-02-17T19:08:25.224Z,66.88
2023-02-17T19:10:55.192Z,66.81
2023-02-17T19:16:32.692Z,66.91
2023-02-17T19:19:00.859Z,67.09
2023-02-17T19:21:29.007Z,67.03
2023-02-17T19:23:57.232Z,67.44
2023-02-17T19:26:28.771Z,67.25
2023-02-17T19:28:56.421Z,67.36
2023-02-17T19:31:27.177Z,67.64
2023-02-17T19:33:58.361Z,66.90
2023-02-17T19:36:29.344Z,65.97
2023-02-17T19:38:57.520Z,65.77
2023-02-17T19:41:26.728Z,66.54
2023-02-17T19:43:54.978Z,66.79
2023-02-17T19:46:25.445Z,67.31
2023-02-17T19:48:54.354Z,67.37
2023-02-17T19:51:25.827Z,67.51
2023-02-17T19:53:57.487Z,67.91
2023-02-17T19:56:27.749Z,68.12
2023-02-17T19:59:04.301Z,68.24
2023-02-17T20:01:32.263Z,68.70
2023-02-17T20:04:01.035Z,69.08
2023-02-17T20:06:34.261Z,69.16
2023-02-17T20:09:06.494Z,69.34
2023-02-17T20:11:35.768Z,68.63
2023-02-17T20:14:05.610Z,68.22
2023-02-17T20:16:41.821Z,68.15
2023-02-17T20:19:11.785Z,68.67
2023-02-17T20:21:44.545Z,69.31
2023-02-17T20:24:14.256Z,69.52
2023-02-17T20:26:45.890Z,69.82
2023-02-17T20:29:22.521Z,70.06
2023-02-17T20:32:02.286Z,70.48
2023-02-17T20:34:35.310Z,70.40
2023-02-17T20:37:06.332Z,70.79
2023-02-17T20:39:38.459Z,70.88
2023-02-17T20:42:08.285Z,71.22
2023-02-17T20:44:39.706Z,71.32
2023-02-17T20:47:10.503Z,70.78
2023-02-17T20:49:40.373Z,70.36
2023-02-17T20:52:09.928Z,70.69
2023-02-17T20:54:39.669Z,70.92
2023-02-17T20:57:15.648Z,71.38
2023-02-17T20:59:49.520Z,71.59
2023-02-17T21:02:23.715Z,71.82
2023-02-17T21:04:56.408Z,71.96
2023-02-17T21:07:25.061Z,71.90
2023-02-17T21:09:55.283Z,71.80
2023-02-17T21:12:23.063Z,71.99
2023-02-17T21:14:52.633Z,72.19
2023-02-17T21:17:20.189Z,72.30
2023-02-17T21:19:48.937Z,72.55
2023-02-17T21:22:16.745Z,71.90
2023-02-17T21:25:11.689Z,71.44
2023-02-17T21:27:41.960Z,71.63
2023-02-17T21:30:11.840Z,71.76
2023-02-17T21:32:43.774Z,72.23
2023-02-17T21:35:15.645Z,72.51
2023-02-17T21:37:54.313Z,72.89
2023-02-17T21:40:25.773Z,72.93
2023-02-17T21:43:14.223Z,73.32
2023-02-17T21:45:46.442Z,72.96
2023-02-17T21:48:15.417Z,72.86
2023-02-17T21:50:44.951Z,73.12
2023-02-17T21:53:15.154Z,73.07
2023-02-17T21:55:44.377Z,72.36
2023-02-17T21:58:14.105Z,71.97
2023-02-17T22:00:47.538Z,71.84
2023-02-17T22:03:15.516Z,71.94
2023-02-17T22:05:51.729Z,71.96
2023-02-17T22:08:20.141Z,72.27
2023-02-17T22:10:57.007Z,72.22
2023-02-17T22:13:26.904Z,72.83
2023-02-17T22:16:03.123Z,72.65
2023-02-17T22:18:36.376Z,72.79
2023-02-17T22:21:16.258Z,72.85
2023-02-17T22:23:47.040Z,72.95
2023-02-17T22:26:20.973Z,72.99
2023-02-17T22:28:52.439Z,72.93
2023-02-17T22:31:23.576Z,72.42
2023-02-17T22:34:00.828Z,72.50
2023-02-17T22:36:30.349Z,72.71
2023-02-17T22:38:58.200Z,72.57
2023-02-17T22:41:28.831Z,72.58
2023-02-17T22:43:56.503Z,72.80
2023-02-17T22:46:26.552Z,73.21
2023-02-17T22:48:54.743Z,73.38
2023-02-17T22:51:24.432Z,73.36
2023-02-17T22:53:54.297Z,73.34
2023-02-17T22:56:26.063Z,73.12
2023-02-17T22:59:00.246Z,73.00
2023-02-17T23:01:29.290Z,72.77
2023-02-17T23:03:56.644Z,73.06
2023-02-17T23:06:31.848Z,73.12
2023-02-17T23:08:59.876Z,72.59
2023-02-17T23:11:49.224Z,72.48
2023-02-17T23:14:32.024Z,71.99
2023-02-17T23:17:04.309Z,71.62
2023-02-17T23:19:38.065Z,71.66
2023-02-17T23:22:13.835Z,72.27
2023-02-17T23:24:43.850Z,72.08
2023-02-17T23:27:13.371Z,72.04
2023-02-17T23:29:41.968Z,72.25
2023-02-17T23:32:09.717Z,72.48
2023-02-17T23:34:37.170Z,72.13
2023-02-17T23:37:05.116Z,72.31
2023-02-17T23:39:37.427Z,72.54
2023-02-17T23:42:10.988Z,72.64
2023-02-17T23:44:41.102Z,72.63
2023-02-17T23:47:14.319Z,72.62
2023-02-17T23:49:44.118Z,72.53
2023-02-17T23:52:12.000Z,72.47
2023-02-17T23:54:42.574Z,72.48
2023-02-17T23:57:11.074Z,72.48
2023-02-17T23:59:41.660Z,72.60
